Time;durP1;ratioP1;P1;durP2;ratioP2;P2;SDS_P1;SDS_P2;PMS_P1;PMS_P2;Temp;Humidity;BMP_temperature;BMP_pressure;BME280_temperature;BME280_humidity;BME280_pressure;Samples;Min_cycle;Max_cycle;Signal;HPM_P1;HPM_P2
2022/12/16 00:00:25;;;;;;;24.47;13.63;;;-6.20;99.90;;;;;;5052741;28;20425;-78
2022/12/16 00:02:53;;;;;;;19.23;10.00;;;-6.30;99.90;;;;;;5055846;28;20421;-78
2022/12/16 00:05:27;;;;;;;26.13;13.83;;;-6.20;99.90;;;;;;5054672;28;20425;-78
2022/12/16 00:07:54;;;;;;;20.40;9.97;;;-6.30;99.90;;;;;;5053755;28;20883;-78
2022/12/16 00:10:21;;;;;;;21.77;10.47;;;-6.30;99.90;;;;;;5055051;28;20435;-78
2022/12/16 00:12:48;;;;;;;23.83;10.17;;;-6.30;99.90;;;;;;5037520;28;20433;-78
2022/12/16 00:15:18;;;;;;;20.20;10.77;;;-6.40;99.90;;;;;;5054464;28;20513;-78
2022/12/16 00:17:49;;;;;;;17.57;10.80;;;-6.40;99.90;;;;;;5051444;28;20423;-78
2022/12/16 00:20:17;;;;;;;30.43;12.37;;;-6.50;99.90;;;;;;5054967;28;20505;-78
2022/12/16 00:22:53;;;;;;;27.63;13.60;;;-6.50;99.90;;;;;;5054958;28;20405;-78
2022/12/16 00:25:19;;;;;;;37.33;17.10;;;-6.60;99.90;;;;;;5053941;28;20684;-78
2022/12/16 00:27:56;;;;;;;29.10;14.07;;;-6.60;99.90;;;;;;5055261;28;20420;-78
2022/12/16 00:30:26;;;;;;;18.30;10.40;;;-6.70;99.90;;;;;;5054487;28;20484;-78
2022/12/16 00:32:53;;;;;;;30.27;13.00;;;-6.80;99.90;;;;;;5053233;28;20436;-78
2022/12/16 00:35:22;;;;;;;39.80;18.33;;;-6.80;99.90;;;;;;5054197;28;20923;-78
2022/12/16 00:37:51;;;;;;;45.70;13.27;;;-6.80;99.90;;;;;;5053068;28;20417;-78
2022/12/16 00:40:18;;;;;;;23.63;14.07;;;-6.80;99.90;;;;;;5054465;28;20422;-78
2022/12/16 00:42:45;;;;;;;26.97;13.23;;;-6.80;99.90;;;;;;5055004;28;20413;-78
2022/12/16 00:45:14;;;;;;;27.07;15.00;;;-6.80;99.90;;;;;;5053910;28;20473;-78
2022/12/16 00:47:44;;;;;;;42.63;15.40;;;-6.90;99.90;;;;;;5054709;28;20424;-78
2022/12/16 00:50:12;;;;;;;29.10;14.63;;;-6.90;99.90;;;;;;5054532;28;20401;-78
2022/12/16 00:52:39;;;;;;;17.90;11.50;;;-7.00;99.90;;;;;;5052622;28;20416;-78
2022/12/16 00:55:06;;;;;;;53.77;16.57;;;-7.00;99.90;;;;;;5052912;28;20860;-78
2022/12/16 00:57:37;;;;;;;40.60;18.30;;;-7.10;99.90;;;;;;5053217;28;20416;-78
2022/12/16 01:00:04;;;;;;;34.73;15.30;;;-7.00;99.90;;;;;;5053165;28;20428;-78
2022/12/16 01:02:35;;;;;;;32.63;14.03;;;-7.00;99.90;;;;;;5054708;28;20413;-78
2022/12/16 01:05:05;;;;;;;21.50;12.80;;;-7.00;99.90;;;;;;5058297;28;20460;-78
2022/12/16 01:07:33;;;;;;;27.00;12.83;;;-7.10;99.90;;;;;;5056378;28;20868;-78
2022/12/16 01:10:00;;;;;;;46.07;15.20;;;-7.00;99.90;;;;;;5057113;28;20421;-78
2022/12/16 01:12:29;;;;;;;36.10;12.47;;;-7.10;99.90;;;;;;5058838;28;20410;-77
2022/12/16 01:14:56;;;;;;;21.87;12.27;;;-7.00;99.90;;;;;;5056459;28;20433;-77
2022/12/16 01:17:24;;;;;;;16.60;9.70;;;-7.00;99.90;;;;;;5056883;28;20414;-78
2022/12/16 01:19:59;;;;;;;43.27;15.93;;;-7.00;99.90;;;;;;5058140;28;20910;-78
2022/12/16 01:22:34;;;;;;;32.13;18.63;;;-7.00;99.90;;;;;;5056664;28;20405;-78
2022/12/16 01:25:02;;;;;;;24.73;12.53;;;-6.90;99.90;;;;;;5039861;28;20475;-78
2022/12/16 01:27:28;;;;;;;25.73;12.27;;;-6.90;99.90;;;;;;5056071;28;20413;-78
2022/12/16 01:29:58;;;;;;;18.93;11.10;;;-6.90;99.90;;;;;;5057712;28;20419;-79
2022/12/16 01:32:24;;;;;;;28.80;12.83;;;-6.90;99.90;;;;;;5056074;28;20432;-78
2022/12/16 01:34:54;;;;;;;27.17;14.17;;;-6.90;99.90;;;;;;5056912;28;21034;-78
2022/12/16 01:37:21;;;;;;;33.67;15.00;;;-7.00;99.90;;;;;;5056279;28;20425;-78
2022/12/16 01:39:47;;;;;;;21.37;11.80;;;-7.00;99.90;;;;;;5056146;28;20835;-78
2022/12/16 01:42:17;;;;;;;29.93;13.47;;;-7.00;99.90;;;;;;5056402;28;20508;-78
2022/12/16 01:44:45;;;;;;;18.37;14.17;;;-7.00;99.90;;;;;;5055167;28;20472;-78
2022/12/16 01:47:19;;;;;;;32.00;12.27;;;-7.00;99.90;;;;;;5056114;28;20432;-78
2022/12/16 01:49:59;;;;;;;31.20;14.47;;;-7.00;99.90;;;;;;5057332;28;20421;-78
2022/12/16 01:52:35;;;;;;;19.53;12.33;;;-7.00;99.90;;;;;;5059284;28;20419;-78
2022/12/16 01:55:13;;;;;;;29.33;14.97;;;-7.00;99.90;;;;;;5055496;28;20440;-78
2022/12/16 01:57:58;;;;;;;35.33;14.00;;;-7.00;99.90;;;;;;5059247;28;20421;-78
2022/12/16 02:00:26;;;;;;;23.53;10.63;;;-7.10;99.90;;;;;;5057922;28;20467;-78
2022/12/16 02:02:54;;;;;;;26.40;11.93;;;-7.10;99.90;;;;;;5057407;28;20425;-78
2022/12/16 02:05:25;;;;;;;35.40;13.30;;;-7.10;99.90;;;;;;5057424;28;20432;-78
2022/12/16 02:08:09;;;;;;;30.83;12.50;;;-7.20;99.90;;;;;;5056608;28;20416;-78
2022/12/16 02:10:46;;;;;;;27.00;12.20;;;-7.20;99.90;;;;;;5056380;28;20413;-78
2022/12/16 02:13:30;;;;;;;18.93;13.17;;;-7.20;99.90;;;;;;5056226;28;20767;-78
2022/12/16 02:16:20;;;;;;;32.10;11.70;;;-7.20;99.90;;;;;;5055620;28;20402;-79
2022/12/16 02:19:03;;;;;;;23.93;13.83;;;-7.30;99.90;;;;;;5057394;28;20409;-78
2022/12/16 02:21:57;;;;;;;18.97;11.53;;;-7.30;99.90;;;;;;5057562;28;20398;-78
2022/12/16 02:25:03;;;;;;;21.43;12.00;;;-7.40;99.90;;;;;;5056043;28;20897;-78
2022/12/16 02:27:42;;;;;;;25.43;11.63;;;-7.40;99.90;;;;;;5053540;28;20420;-78
2022/12/16 02:30:36;;;;;;;23.03;12.30;;;-7.40;99.90;;;;;;5055849;28;20416;-78
2022/12/16 02:33:33;;;;;;;35.53;12.17;;;-7.30;99.90;;;;;;5056655;28;20511;-78
2022/12/16 02:36:27;;;;;;;18.43;9.47;;;-7.20;99.90;;;;;;5056689;28;20496;-78
2022/12/16 02:39:24;;;;;;;27.77;12.53;;;-7.30;99.90;;;;;;5056423;28;20416;-79
2022/12/16 02:42:23;;;;;;;38.00;11.60;;;-7.30;99.90;;;;;;5056837;28;20443;-78
2022/12/16 02:45:02;;;;;;;39.30;14.13;;;-7.20;99.90;;;;;;5056212;28;20488;-78
2022/12/16 02:47:33;;;;;;;33.63;10.60;;;-7.20;99.90;;;;;;5055776;28;20401;-78
2022/12/16 02:50:01;;;;;;;45.10;14.43;;;-7.30;99.90;;;;;;5055227;28;20413;-78
2022/12/16 02:52:34;;;;;;;22.30;11.27;;;-7.30;99.90;;;;;;5055376;28;20417;-78
2022/12/16 02:55:04;;;;;;;27.43;11.93;;;-7.20;99.90;;;;;;5056997;28;20432;-78
2022/12/16 02:57:38;;;;;;;24.77;11.67;;;-7.20;99.90;;;;;;5042381;28;20424;-78
2022/12/16 03:00:13;;;;;;;36.43;13.30;;;-7.20;99.90;;;;;;5057732;28;20439;-78
2022/12/16 03:03:04;;;;;;;16.23;10.63;;;-7.20;99.90;;;;;;5055688;28;20775;-78
2022/12/16 03:05:37;;;;;;;24.23;11.57;;;-7.20;99.90;;;;;;5055484;28;20481;-78
2022/12/16 03:08:11;;;;;;;32.13;14.10;;;-7.10;99.90;;;;;;5054274;28;20425;-78
2022/12/16 03:10:52;;;;;;;29.23;15.77;;;-7.10;99.90;;;;;;5054426;28;20413;-78
2022/12/16 03:13:22;;;;;;;28.40;12.73;;;-7.00;99.90;;;;;;5053791;28;20544;-78
2022/12/16 03:15:54;;;;;;;27.47;13.30;;;-7.00;99.90;;;;;;5052535;28;20464;-78
2022/12/16 03:18:22;;;;;;;22.63;10.70;;;-7.00;99.90;;;;;;5036284;28;20425;-78
2022/12/16 03:21:04;;;;;;;22.67;13.30;;;-7.00;99.90;;;;;;5036693;28;20422;-78
2022/12/16 03:23:40;;;;;;;33.20;13.93;;;-7.00;99.90;;;;;;5053245;28;20491;-78
2022/12/16 03:26:17;;;;;;;23.13;9.87;;;-7.00;99.90;;;;;;5052731;28;20417;-78
2022/12/16 03:28:52;;;;;;;20.00;12.10;;;-7.00;99.90;;;;;;5053962;28;20416;-79
2022/12/16 03:31:56;;;;;;;23.97;10.93;;;-6.90;99.90;;;;;;5053243;28;20419;-78
2022/12/16 03:34:39;;;;;;;20.63;9.03;;;-7.00;99.90;;;;;;5015460;28;20450;-78
2022/12/16 03:37:07;;;;;;;18.67;9.33;;;-7.00;99.90;;;;;;5050042;28;20420;-78
2022/12/16 03:39:41;;;;;;;16.80;9.67;;;-7.00;99.90;;;;;;5053224;28;20511;-78
2022/12/16 03:42:10;;;;;;;11.40;6.80;;;-7.10;99.90;;;;;;5054619;28;20810;-78
2022/12/16 03:44:37;;;;;;;18.07;7.80;;;-7.10;99.90;;;;;;5052491;28;20469;-79
2022/12/16 03:47:07;;;;;;;20.97;9.20;;;-7.10;99.90;;;;;;5052331;28;20410;-78
2022/12/16 03:49:37;;;;;;;18.37;7.40;;;-7.20;99.90;;;;;;5053181;28;20416;-78
2022/12/16 03:52:03;;;;;;;18.10;9.10;;;-7.20;99.90;;;;;;5054423;28;20441;-78
2022/12/16 03:54:31;;;;;;;18.37;11.30;;;-7.20;99.90;;;;;;5053755;28;20433;-78
2022/12/16 03:56:59;;;;;;;24.60;9.40;;;-7.20;99.90;;;;;;5054589;28;20929;-78
2022/12/16 03:59:27;;;;;;;21.83;10.93;;;-7.20;99.90;;;;;;5053323;28;20432;-79
2022/12/16 04:01:56;;;;;;;28.57;11.77;;;-7.20;99.90;;;;;;5036878;28;20527;-78
2022/12/16 04:04:22;;;;;;;31.07;12.60;;;-7.20;99.90;;;;;;5052704;28;20472;-78
2022/12/16 04:07:19;;;;;;;11.63;7.77;;;-7.20;99.90;;;;;;5053300;28;20427;-79
2022/12/16 04:09:36;;;;;;;29.27;10.50;;;-7.30;99.90;;;;;;5053653;28;20421;-78
2022/12/16 04:25:53;;;;;;;21.53;12.40;;;-7.10;99.90;;;;;;5056762;28;20511;-78
2022/12/16 04:28:22;;;;;;;18.87;13.13;;;-7.10;99.90;;;;;;5053916;28;20487;-78
2022/12/16 04:30:48;;;;;;;20.30;11.47;;;-7.10;99.90;;;;;;5022784;28;20906;-78
